Central Sierra Snow Lab Weather observations

Data are for 10 minute period ending at time listed.
 Day   Time    Incoming  Reflected   Ave.   Ave.    Ave.    Vector  Max.    Ave.    Total    Snow   
  of    of      Solar     Solar      Air    Rel.    Wind    Wind    Wind   Baro.   Precip.   Depth  
Year   Day     Radiation Radiation   Temp.  Humid.  Speed   Dir.    Gust   Press.                   
2017   (PST)    Kw/m2     Kw/m2       F       %      mph     deg.    mph     mb.     in.      in.   
----------------------------------------------------------------------------------------------------
 262    9:30    0.583     999.000     47.6     36     2.8     222     7.9   790.70   11.31   93.80  
 262    9:40    0.606     999.000     47.9     38     3.3     224     9.4   790.70   11.31   95.10  
 262    9:50    0.620     999.000     48.5     40     2.7     233     5.9   790.70   11.32   28.10  
 262   10:00    0.660     999.000     49.5     39     2.7     224     6.9   790.80   11.32   -4.00  
 262   10:10    0.680     999.000     49.0     38     3.5     218     7.6   790.80   11.31   53.50  
 262   10:20    0.697     999.000     48.7     34     3.5     233    10.0   790.70   11.31   136.20  
 262   10:30    0.711     999.000     48.7     36     3.8     259    11.4   790.70   11.31   162.80  
 262   10:40    0.722     999.000     49.2     39     3.8     231    10.8   790.70   11.31   130.20  
 262   10:50    0.742     999.000     49.8     35     3.2     251     8.4   790.70   11.31   69.90  
 262   11:00    0.762     999.000     49.7     31     4.3     252    10.8   790.60   11.31   152.90  
 262   11:10    0.768     999.000     49.7     33     5.1     267    14.1   790.50   11.31   151.60  
 262   11:20    0.778     999.000     50.9     32     3.9     239    10.0   790.50   11.31   137.50  
 262   11:30    0.787     999.000     52.2     35     3.0     228     8.3   790.50   11.32   19.90  
 262   11:40    0.803     999.000     52.2     36     3.5     233     9.0   790.40   11.31   -3.90  
 262   11:50    0.790     999.000     51.3     34     5.2     251    13.9   790.40   11.31   14.30  
 262   12:00    0.791     999.000     51.2     33     5.3     248    13.6   790.30   11.31   69.00  
 262   12:10    0.792     999.000     51.5     34     4.6     237    11.9   790.30   11.32   14.40  
 262   12:20    0.792     999.000     51.3     35     4.4     254    13.3   790.40   11.31   96.90  
 262   12:30    0.787     999.000     51.8     35     4.3     229     9.3   790.40   11.31   40.90  
 262   12:40    0.783     999.000     51.2     37     5.3     252    12.8   790.20   11.31   164.40  
 262   12:50    0.777     999.000     51.7     38     3.9     204     8.2   790.20   11.32   161.60  
 262   13:00    0.772     999.000     51.6     38     4.4     219    11.3   790.30   11.31   164.30  
 262   13:10    0.766     999.000     51.7     40     4.6     240    11.8   790.20   11.31   164.50  
 262   13:20    0.756     999.000     51.4     40     4.5     230    11.5   790.40   11.32   164.50  
 262   13:30    0.746     999.000     51.6     43     5.0     241    12.3   790.40   11.31   164.40  
 262   13:40    0.738     999.000     51.5     45     4.9     240    12.9   790.50   11.31   164.50  
 262   13:50    0.712     999.000     51.9     42     4.1     208     9.8   790.50   11.31   164.40  
 262   14:00    0.694     999.000     51.9     44     3.9     220     9.1   790.40   11.32   162.90  
 262   14:10    0.687     999.000     51.8     45     3.2     211     9.3   790.40   11.32   134.90  
 262   14:20    0.655     999.000     51.9     47     3.7     229     9.2   790.30   11.32   -1.90  
 262   14:30    0.631     999.000     51.7     47     4.2     226    12.1   790.20   11.31   -3.20  
 262   14:40    0.608     999.000     51.8     46     4.5     251    11.5   790.10   11.31   -3.20  
 262   14:50    0.585     999.000     51.7     42     4.7     237    10.9   790.20   11.31   -3.20  
 262   15:00    0.560     999.000     51.3     40     4.6     234    13.6   790.30   11.31   -3.10  
 262   15:10    0.533     999.000     51.5     39     4.4     231    12.0   790.30   11.32   -3.20  
 262   15:20    0.503     999.000     51.4     39     3.3     215     8.8   790.30   11.31   -3.20  
 262   15:30    0.476     999.000     51.8     39     3.2     211     8.7   790.30   11.32   -3.20  
 262   15:40    0.446     999.000     52.0     38     4.2     248    10.6   790.30   11.32   -3.20  
 262   15:50    0.415     999.000     51.5     39     3.5     220     9.3   790.40   11.31   -3.20  
 262   16:00    0.384     999.000     51.2     41     3.6     218    12.9   790.40   11.31   -3.10  
 262   16:10    0.344     999.000     51.2     42     3.2     239    11.9   790.50   11.31   -3.20  
 262   16:20    0.114     999.000     50.4     44     3.4     213     7.9   790.50   11.31   -3.10  
 262   16:30    0.059     999.000     49.6     46     2.8     226     7.9   790.60   11.31   -3.10  
 262   16:40    0.071     999.000     49.6     47     2.9     206     8.6   790.70   11.31   -3.10  
 262   16:50    0.084     999.000     49.9     47     2.3     218     6.3   790.60   11.31   -3.10  
 262   17:00    0.063     999.000     49.9     46     3.9     250    11.0   790.50   11.31   -3.00  
 262   17:10    0.052     999.000     49.1     48     1.9     234     6.2   790.60   11.31   -3.00  
 262   17:20    0.040     999.000     48.3     50     1.8     221     6.3   790.70   11.31   80.40  
 262   17:30    0.019     999.000     47.7     52     2.9     244     7.5   790.90   11.31   -3.00  
 262   17:40    0.014     999.000     47.1     54     2.8     237     8.9   791.00   11.31   -3.00  
 262   17:50    0.011     999.000     46.3     54     3.1     228    10.8   790.90   11.31   -3.00  
 262   18:00    0.007     999.000     45.7     55     3.0     215     8.3   791.00   11.31   -3.00  
 262   18:10    0.003     999.000     45.2     57     2.6     208     5.4   791.00   11.31   -3.00  
 262   18:20    0.001     999.000     44.7     59     2.0     205     5.3   790.90   11.31   -3.00  
 262   18:30    0.000     999.000     44.3     60     2.1     233     6.3   791.00   11.31   -2.80  
 262   18:40    0.000     999.000     44.0     61     1.9     234     4.9   790.90   11.31   -2.80  
 262   18:50    0.000     999.000     43.5     62     1.6     201     3.3   791.00   11.31   -2.70  
 262   19:00    0.000     999.000     42.9     64     1.6     195     3.7   791.10   11.31   -2.80  
 262   19:10    0.000     999.000     42.6     64     1.6     221     4.3   791.20   11.31   -2.70  
 262   19:20    0.000     999.000     42.3     65     1.1      70     2.7   791.10   11.32   -2.70  
 262   19:30    0.000     999.000     42.1     65     1.0      88     2.4   791.10   11.32   -2.80  
 262   19:40    0.000     999.000     41.8     66     1.5     123     2.7   791.00   11.31   -2.80  
 262   19:50    0.000     999.000     41.3     68     0.5     108     2.2   791.20   11.31   -2.90  
 262   20:00    0.000     999.000     41.0     69     0.9     152     2.1   791.20   11.31   -2.80  
 262   20:10    0.000     999.000     40.9     70     0.5     109     1.9   791.20   11.31   -2.70  
 262   20:20    0.000     999.000     41.0     69     0.9     107     2.2   791.20   11.31   -2.70  
 262   20:30    0.000     999.000     40.7     70     0.7      89     1.7   791.30   11.31   -2.80  
 262   20:40    0.000     999.000     40.6     70     0.8     106     1.7   791.30   11.32   -2.70  
 262   20:50    0.000     999.000     40.3     71     1.3      74     3.6   791.30   11.32   -2.80  
 262   21:00    0.000     999.000     40.0     72     0.4      60     1.5   791.30   11.32   -2.90  
 262   21:10    0.000     999.000     39.3     73     1.6      29     2.7   791.30   11.32   -3.00  
 262   21:20    0.000     999.000     38.8     74     1.8      26     2.7   791.30   11.31   -2.90  
 262   21:30    0.000     999.000     38.4     74     2.3      29     3.3   791.40   11.32   -2.80  
 262   21:40    0.000     999.000     38.1     74     1.9      32     3.1   791.40   11.32   -2.90  
 262   21:50    0.000     999.000     38.0     73     1.7      28     2.9   791.40   11.32   -2.90  
 262   22:00    0.000     999.000     38.0     71     1.4      32     2.4   791.20   11.34   -2.90  
 262   22:10    0.000     999.000     37.7     70     2.1      26     2.9   791.20   11.33   -2.80  
 262   22:20    0.000     999.000     37.4     70     2.4      25     3.4   791.10   11.34   -2.80  
 262   22:30    0.000     999.000     37.2     68     2.2      30     3.3   791.10   11.34   -2.80  
 262   22:40    0.000     999.000     37.0     68     2.1      26     2.9   791.00   11.33   -2.90  
 262   22:50    0.999     999.000    999.0    999   999.0     999   999.0   999.00   999.00   999.00  
 262   23:00    0.999     999.000    999.0    999   999.0     999   999.0   999.00   999.00   999.00  
 262   23:10    0.999     999.000    999.0    999   999.0     999   999.0   999.00   999.00   999.00  
 262   23:20    0.999     999.000    999.0    999   999.0     999   999.0   999.00   999.00   999.00  
 262   23:30    0.999     999.000    999.0    999   999.0     999   999.0   999.00   999.00   999.00  
 262   23:40    0.999     999.000    999.0    999   999.0     999   999.0   999.00   999.00   999.00  
 262   23:50    0.999     999.000    999.0    999   999.0     999   999.0   999.00   999.00   999.00  
 263    0:00    0.999     999.000    999.0    999   999.0     999   999.0   999.00   999.00   999.00  
 263    0:10    0.999     999.000    999.0    999   999.0     999   999.0   999.00   999.00   999.00  
 263    0:20    0.999     999.000    999.0    999   999.0     999   999.0   999.00   999.00   999.00  
 263    0:30    0.999     999.000    999.0    999   999.0     999   999.0   999.00   999.00   999.00  
 263    0:40    0.999     999.000    999.0    999   999.0     999   999.0   999.00   999.00   999.00  
 263    0:50    0.999     999.000    999.0    999   999.0     999   999.0   999.00   999.00   999.00  
 263    1:00    0.999     999.000    999.0    999   999.0     999   999.0   999.00   999.00   999.00  
 263    1:10    0.999     999.000    999.0    999   999.0     999   999.0   999.00   999.00   999.00  
 263    1:20    0.999     999.000    999.0    999   999.0     999   999.0   999.00   999.00   999.00  
 263    1:30    0.999     999.000    999.0    999   999.0     999   999.0   999.00   999.00   999.00  
 263    1:40    0.999     999.000    999.0    999   999.0     999   999.0   999.00   999.00   999.00  
 263    1:50    0.999     999.000    999.0    999   999.0     999   999.0   999.00   999.00   999.00  
 263    2:00    0.999     999.000    999.0    999   999.0     999   999.0   999.00   999.00   999.00  
 263    2:10    0.999     999.000    999.0    999   999.0     999   999.0   999.00   999.00   999.00  
 263    2:20    0.999     999.000    999.0    999   999.0     999   999.0   999.00   999.00   999.00  
 263    2:30    0.999     999.000    999.0    999   999.0     999   999.0   999.00   999.00   999.00  
 263    2:40    0.999     999.000    999.0    999   999.0     999   999.0   999.00   999.00   999.00  
 263    2:50    0.999     999.000    999.0    999   999.0     999   999.0   999.00   999.00   999.00  
 263    3:00    0.999     999.000    999.0    999   999.0     999   999.0   999.00   999.00   999.00  
 263    3:10    0.999     999.000    999.0    999   999.0     999   999.0   999.00   999.00   999.00  
 263    3:20    0.999     999.000    999.0    999   999.0     999   999.0   999.00   999.00   999.00  
 263    3:30    0.999     999.000    999.0    999   999.0     999   999.0   999.00   999.00   999.00  
 263    3:40    0.999     999.000    999.0    999   999.0     999   999.0   999.00   999.00   999.00  
 263    3:50    0.999     999.000    999.0    999   999.0     999   999.0   999.00   999.00   999.00  
 263    4:00    0.999     999.000    999.0    999   999.0     999   999.0   999.00   999.00   999.00  
 263    4:10    0.999     999.000    999.0    999   999.0     999   999.0   999.00   999.00   999.00  
 263    4:20    0.999     999.000    999.0    999   999.0     999   999.0   999.00   999.00   999.00  
 263    4:30    0.999     999.000    999.0    999   999.0     999   999.0   999.00   999.00   999.00  
 263    4:40    0.999     999.000    999.0    999   999.0     999   999.0   999.00   999.00   999.00  
 263    4:50    0.999     999.000    999.0    999   999.0     999   999.0   999.00   999.00   999.00  
 263    5:00    0.999     999.000    999.0    999   999.0     999   999.0   999.00   999.00   999.00  
 263    5:10    0.999     999.000    999.0    999   999.0     999   999.0   999.00   999.00   999.00  
 263    5:20    0.999     999.000    999.0    999   999.0     999   999.0   999.00   999.00   999.00  
 263    5:30    0.999     999.000    999.0    999   999.0     999   999.0   999.00   999.00   999.00  
 263    5:40    0.999     999.000    999.0    999   999.0     999   999.0   999.00   999.00   999.00  
 263    5:50    0.999     999.000    999.0    999   999.0     999   999.0   999.00   999.00   999.00  
 263    6:00    0.999     999.000    999.0    999   999.0     999   999.0   999.00   999.00   999.00  
 263    6:10    0.999     999.000    999.0    999   999.0     999   999.0   999.00   999.00   999.00  
 263    6:20    0.999     999.000    999.0    999   999.0     999   999.0   999.00   999.00   999.00  
 263    6:30    0.999     999.000    999.0    999   999.0     999   999.0   999.00   999.00   999.00  
 263    6:40    0.999     999.000    999.0    999   999.0     999   999.0   999.00   999.00   999.00  
 263    6:50    0.999     999.000    999.0    999   999.0     999   999.0   999.00   999.00   999.00  
 263    7:00    0.999     999.000    999.0    999   999.0     999   999.0   999.00   999.00   999.00  
 263    7:10    0.999     999.000    999.0    999   999.0     999   999.0   999.00   999.00   999.00  
 263    7:20    0.999     999.000    999.0    999   999.0     999   999.0   999.00   999.00   999.00  
 263    7:30    0.999     999.000    999.0    999   999.0     999   999.0   999.00   999.00   999.00  
 263    7:40    0.999     999.000    999.0    999   999.0     999   999.0   999.00   999.00   999.00  
 263    7:50    0.999     999.000    999.0    999   999.0     999   999.0   999.00   999.00   999.00  
 263    8:00    0.999     999.000    999.0    999   999.0     999   999.0   999.00   999.00   999.00  
 263    8:10    0.999     999.000    999.0    999   999.0     999   999.0   999.00   999.00   999.00  
 263    8:20    0.231     999.000     41.3     64     3.0     233    16.3   789.10   11.33   38.20  
 263    8:30    0.266     999.000     45.0     59     3.3     225     7.2   787.50    7.72   129.20  
 263    8:40    0.294     999.000     44.9     57     2.8     221     6.0   787.80   11.31   164.60  
 263    8:50    0.324     999.000     45.4     56     3.7     205    13.0   788.50   11.31   164.60  
 263    9:00    0.239     999.000     45.3     57     3.7     209     8.9   788.50   11.31   147.00  
 263    9:10    0.228     999.000     45.3     58     3.6     210     9.5   788.50   11.31   158.80  
 263    9:20    0.254     999.000     45.5     58     3.3     216     6.5   788.50   11.31   162.40  

Return to Central Sierra Snow Lab graphs page.


Western Regional Climate Center,wrcc@dri.edu